createdAt,value
2018-07-03T00:00:27.036Z,34.42
2018-07-03T00:03:01.600Z,35.48
2018-07-03T00:05:36.156Z,34.76
2018-07-03T00:08:10.647Z,36.09
2018-07-03T00:10:45.225Z,34.60
2018-07-03T00:13:19.857Z,34.76
2018-07-03T00:15:54.284Z,35.27
2018-07-03T00:18:28.868Z,35.33
2018-07-03T00:21:03.523Z,35.29
2018-07-03T00:23:37.967Z,35.47
2018-07-03T00:26:12.852Z,35.90
2018-07-03T00:28:47.490Z,35.25
2018-07-03T00:31:22.066Z,36.51
2018-07-03T00:33:56.625Z,35.94
2018-07-03T00:36:31.079Z,35.66
2018-07-03T00:39:07.619Z,36.36
2018-07-03T00:41:42.217Z,36.73
2018-07-03T00:44:16.759Z,36.91
2018-07-03T00:46:51.254Z,37.70
2018-07-03T00:49:25.701Z,36.19
2018-07-03T00:52:00.198Z,36.44
2018-07-03T00:54:34.714Z,36.96
2018-07-03T00:57:09.136Z,36.68
2018-07-03T00:59:54.948Z,36.36
2018-07-03T01:02:29.332Z,36.26
2018-07-03T01:05:03.778Z,36.75
2018-07-03T01:07:38.301Z,36.27
2018-07-03T01:10:12.889Z,36.17
2018-07-03T01:12:47.459Z,36.01
2018-07-03T01:15:22.132Z,36.48
2018-07-03T01:17:57.040Z,36.65
2018-07-03T01:20:31.501Z,36.95
2018-07-03T01:23:06.480Z,36.99
2018-07-03T01:25:41.000Z,38.06
2018-07-03T01:28:15.468Z,37.95
2018-07-03T01:30:50.344Z,37.92
2018-07-03T01:33:24.941Z,40.17
2018-07-03T01:35:59.337Z,39.12
2018-07-03T01:38:33.866Z,40.19
2018-07-03T01:41:08.282Z,39.29
2018-07-03T01:43:42.961Z,39.40
2018-07-03T01:46:17.576Z,39.63
2018-07-03T01:48:52.055Z,41.59
2018-07-03T01:51:26.700Z,40.20
2018-07-03T01:54:01.395Z,41.70
2018-07-03T01:56:35.972Z,40.01
2018-07-03T01:59:10.581Z,40.01
2018-07-03T02:01:45.146Z,42.24
2018-07-03T02:04:19.622Z,41.20
2018-07-03T02:06:54.204Z,41.66
2018-07-03T02:09:28.587Z,40.14
2018-07-03T02:12:03.030Z,40.30
2018-07-03T02:14:37.452Z,41.00
2018-07-03T02:17:11.876Z,39.72
2018-07-03T02:19:46.291Z,40.85
2018-07-03T02:22:20.702Z,41.43
2018-07-03T02:24:55.119Z,41.85
2018-07-03T02:27:29.406Z,41.33
2018-07-03T02:30:03.839Z,42.54
2018-07-03T02:32:38.124Z,42.05
2018-07-03T02:35:12.484Z,41.40
2018-07-03T02:37:46.841Z,40.73
2018-07-03T02:40:21.051Z,43.02
2018-07-03T02:42:55.403Z,41.96
2018-07-03T02:45:29.745Z,40.77
2018-07-03T02:48:04.104Z,41.91
2018-07-03T02:50:38.448Z,42.18
2018-07-03T02:53:12.685Z,43.25
2018-07-03T02:55:47.147Z,41.36
2018-07-03T02:58:21.636Z,41.11
2018-07-03T03:00:55.891Z,41.47
2018-07-03T03:03:30.131Z,42.25
2018-07-03T03:06:04.500Z,41.54
2018-07-03T03:08:39.040Z,41.89
2018-07-03T03:11:13.482Z,41.70
2018-07-03T03:13:47.832Z,41.76
2018-07-03T03:16:22.064Z,40.75
2018-07-03T03:18:56.465Z,40.88
2018-07-03T03:21:30.699Z,40.61
2018-07-03T03:24:04.892Z,40.05
2018-07-03T03:26:39.120Z,40.16
2018-07-03T03:29:13.618Z,39.82
2018-07-03T03:31:47.904Z,39.88
2018-07-03T03:34:22.335Z,39.84
2018-07-03T03:36:56.615Z,39.81
2018-07-03T03:39:30.976Z,40.66
2018-07-03T03:42:05.449Z,40.39
2018-07-03T03:44:39.789Z,39.86
2018-07-03T03:47:14.410Z,41.47
2018-07-03T03:49:48.898Z,39.99
2018-07-03T03:52:23.363Z,39.96
2018-07-03T03:54:58.021Z,40.12
2018-07-03T03:57:32.623Z,40.53
2018-07-03T04:00:08.607Z,40.44
2018-07-03T04:02:43.006Z,41.38
2018-07-03T04:05:17.575Z,40.79
2018-07-03T04:07:52.131Z,39.82
2018-07-03T04:10:26.484Z,39.29
2018-07-03T04:13:00.893Z,40.13
2018-07-03T04:15:35.328Z,40.31
2018-07-03T04:18:09.788Z,39.30
2018-07-03T04:20:44.403Z,39.63
2018-07-03T04:23:18.856Z,39.79
2018-07-03T04:25:53.541Z,39.50
2018-07-03T04:28:28.176Z,39.22
2018-07-03T04:31:03.368Z,38.79
2018-07-03T04:33:38.033Z,39.07
2018-07-03T04:36:12.574Z,39.02
2018-07-03T04:38:47.137Z,39.59
2018-07-03T04:41:21.687Z,40.82
2018-07-03T04:43:56.287Z,38.40
2018-07-03T04:46:30.644Z,39.39
2018-07-03T04:49:05.057Z,40.22
2018-07-03T04:51:39.648Z,37.40
2018-07-03T04:54:14.073Z,36.83
2018-07-03T04:56:48.471Z,37.29
2018-07-03T04:59:23.225Z,38.62
2018-07-03T05:01:57.909Z,36.94
2018-07-03T05:04:32.468Z,37.39
2018-07-03T05:07:07.128Z,36.39
2018-07-03T05:09:41.719Z,39.53
2018-07-03T05:12:16.200Z,40.65
2018-07-03T05:14:50.675Z,38.41
2018-07-03T05:17:25.265Z,37.88
2018-07-03T05:19:59.645Z,36.58
2018-07-03T05:22:34.083Z,40.88
2018-07-03T05:25:08.589Z,36.70
2018-07-03T05:27:42.964Z,35.84
2018-07-03T05:30:17.434Z,35.87
2018-07-03T05:32:52.039Z,36.09
2018-07-03T05:35:26.583Z,37.38
2018-07-03T05:38:01.025Z,35.47
2018-07-03T05:40:35.676Z,34.79
2018-07-03T05:43:10.271Z,35.72
2018-07-03T05:45:44.876Z,35.21
2018-07-03T05:48:19.412Z,36.37
2018-07-03T05:50:53.856Z,35.65
2018-07-03T05:53:28.622Z,35.75
2018-07-03T05:56:03.290Z,34.04
2018-07-03T05:58:37.933Z,34.46
2018-07-03T06:01:12.649Z,36.40
2018-07-03T06:03:47.260Z,34.12
2018-07-03T06:06:21.724Z,35.58
2018-07-03T06:08:56.317Z,33.53
2018-07-03T06:11:30.790Z,32.37
2018-07-03T06:14:05.212Z,32.54
2018-07-03T06:16:39.684Z,33.03
2018-07-03T06:19:14.309Z,32.61
2018-07-03T06:21:48.853Z,32.40
2018-07-03T06:24:23.368Z,33.50
2018-07-03T06:26:57.956Z,31.95
2018-07-03T06:29:32.389Z,30.84
2018-07-03T06:32:06.980Z,31.03
2018-07-03T06:34:41.596Z,30.92
2018-07-03T06:37:16.066Z,31.12
2018-07-03T06:39:50.493Z,30.09
2018-07-03T06:42:25.045Z,29.77
2018-07-03T06:44:59.593Z,25.58
2018-07-03T06:47:33.840Z,21.24
2018-07-03T06:50:08.266Z,19.73
2018-07-03T06:52:42.839Z,16.76
2018-07-03T06:55:17.173Z,16.64
2018-07-03T06:57:51.637Z,16.01
2018-07-03T07:00:26.136Z,16.17
2018-07-03T07:03:00.592Z,15.04
2018-07-03T07:05:34.952Z,13.07
2018-07-03T07:08:09.448Z,14.23
2018-07-03T07:10:43.692Z,12.96
2018-07-03T07:13:18.205Z,13.90
2018-07-03T07:15:52.761Z,13.44
2018-07-03T07:18:27.280Z,15.34
2018-07-03T07:21:01.713Z,12.22
2018-07-03T07:23:36.201Z,12.85
2018-07-03T07:26:10.837Z,12.64
2018-07-03T07:28:45.248Z,11.68
2018-07-03T07:31:19.724Z,13.27
2018-07-03T07:33:54.115Z,12.04
2018-07-03T07:36:28.515Z,11.27
2018-07-03T07:39:02.970Z,10.16
2018-07-03T07:41:37.485Z,11.17
2018-07-03T07:44:12.090Z,11.52
2018-07-03T07:46:53.104Z,11.59
2018-07-03T07:49:27.456Z,12.00
2018-07-03T07:52:01.966Z,11.16
2018-07-03T07:54:36.733Z,10.50
2018-07-03T07:57:11.176Z,10.25
2018-07-03T07:59:45.795Z,10.77
2018-07-03T08:02:20.333Z,11.47
2018-07-03T08:04:54.747Z,10.45
2018-07-03T08:07:29.497Z,11.55
2018-07-03T08:10:04.338Z,10.23
2018-07-03T08:12:38.880Z,10.50
2018-07-03T08:15:13.399Z,11.11
2018-07-03T08:17:47.988Z,11.50
2018-07-03T08:20:22.351Z,11.92
2018-07-03T08:22:56.725Z,11.63
2018-07-03T08:25:31.168Z,10.87
2018-07-03T08:28:05.656Z,11.37
2018-07-03T08:30:40.012Z,10.36
2018-07-03T08:33:15.358Z,9.91
2018-07-03T08:35:50.013Z,10.33
2018-07-03T08:38:24.444Z,11.92
2018-07-03T08:40:58.981Z,10.63
2018-07-03T08:43:33.529Z,10.10
2018-07-03T08:46:07.880Z,10.37
2018-07-03T08:48:42.349Z,9.48
2018-07-03T08:51:16.749Z,8.94
2018-07-03T08:53:51.257Z,8.38
2018-07-03T08:56:25.748Z,10.23
2018-07-03T08:59:00.121Z,10.36
2018-07-03T09:01:34.664Z,9.12
2018-07-03T09:04:09.063Z,10.16
2018-07-03T09:06:43.613Z,10.76
2018-07-03T09:09:18.108Z,9.84
2018-07-03T09:11:52.570Z,9.83
2018-07-03T09:14:26.864Z,11.75
2018-07-03T09:17:09.547Z,10.41
2018-07-03T09:19:43.908Z,10.50
2018-07-03T09:22:18.384Z,11.85
2018-07-03T09:24:52.867Z,11.89
2018-07-03T09:27:27.277Z,10.92
2018-07-03T09:30:01.609Z,9.78
2018-07-03T09:32:36.319Z,9.25
2018-07-03T09:35:10.918Z,9.86
2018-07-03T09:37:45.288Z,8.78
2018-07-03T09:40:19.886Z,11.10
2018-07-03T09:42:54.204Z,8.87
2018-07-03T09:45:28.706Z,10.58
2018-07-03T09:48:03.327Z,10.91
2018-07-03T09:50:37.703Z,9.40
2018-07-03T09:53:12.280Z,8.78
2018-07-03T09:55:46.761Z,8.72
2018-07-03T09:58:21.197Z,9.84
2018-07-03T10:00:56.781Z,11.55
2018-07-03T10:03:31.327Z,13.39
2018-07-03T10:06:05.635Z,11.25
2018-07-03T10:08:40.088Z,10.11
2018-07-03T10:11:14.952Z,10.35
2018-07-03T10:13:49.360Z,10.66
2018-07-03T10:16:23.665Z,9.02
2018-07-03T10:18:58.209Z,8.25
2018-07-03T10:21:32.559Z,10.66
2018-07-03T10:24:07.085Z,11.40
2018-07-03T10:26:41.444Z,12.15
2018-07-03T10:29:15.818Z,10.67
2018-07-03T10:31:50.264Z,9.70
2018-07-03T10:34:24.814Z,9.67
2018-07-03T10:36:59.460Z,10.16
2018-07-03T10:39:33.863Z,8.98
2018-07-03T10:42:08.395Z,8.71
2018-07-03T10:44:42.922Z,9.23
2018-07-03T10:47:17.302Z,11.68
2018-07-03T10:49:51.740Z,9.46
2018-07-03T10:52:26.266Z,11.03
2018-07-03T10:55:00.620Z,8.73
2018-07-03T10:57:35.060Z,10.87
2018-07-03T11:00:09.537Z,10.42
2018-07-03T11:02:44.617Z,9.05
2018-07-03T11:05:19.073Z,10.17
2018-07-03T11:07:53.393Z,9.76
2018-07-03T11:10:28.160Z,9.85
2018-07-03T11:13:02.568Z,10.25
2018-07-03T11:15:37.034Z,10.07
2018-07-03T11:18:11.524Z,9.19
2018-07-03T11:20:45.889Z,8.36
2018-07-03T11:23:20.221Z,8.37
2018-07-03T11:25:54.629Z,9.36
2018-07-03T11:28:29.040Z,9.77
2018-07-03T11:31:03.563Z,8.61
2018-07-03T11:33:37.959Z,8.64
2018-07-03T11:36:12.444Z,10.10
2018-07-03T11:38:46.877Z,9.54
2018-07-03T11:41:21.224Z,9.26
2018-07-03T11:43:55.640Z,9.49
2018-07-03T11:46:30.050Z,12.57
2018-07-03T11:49:04.423Z,10.95
2018-07-03T11:51:38.808Z,11.43
2018-07-03T11:54:13.331Z,12.42
2018-07-03T11:56:47.774Z,12.10
2018-07-03T11:59:22.216Z,13.92
2018-07-03T12:01:56.608Z,12.96
2018-07-03T12:04:31.192Z,15.00
2018-07-03T12:07:07.763Z,15.00
2018-07-03T12:09:42.096Z,16.32
2018-07-03T12:12:16.740Z,16.10
2018-07-03T12:14:51.433Z,17.45
2018-07-03T12:17:26.285Z,17.25
2018-07-03T12:20:00.832Z,18.28
2018-07-03T12:22:35.761Z,18.34
2018-07-03T12:25:10.488Z,19.02
2018-07-03T12:27:45.034Z,19.83
2018-07-03T12:30:19.510Z,19.88
2018-07-03T12:32:53.945Z,19.46
2018-07-03T12:35:28.378Z,19.04
2018-07-03T12:38:02.958Z,20.27
2018-07-03T12:40:38.207Z,19.71
2018-07-03T12:43:25.064Z,20.89
2018-07-03T12:46:07.937Z,22.34
2018-07-03T12:48:42.345Z,21.05
2018-07-03T12:51:16.812Z,21.67
2018-07-03T12:53:51.448Z,21.44
2018-07-03T12:56:25.971Z,20.49
2018-07-03T12:59:00.400Z,20.71
2018-07-03T13:01:34.764Z,20.87
2018-07-03T13:04:09.288Z,20.83
2018-07-03T13:06:43.685Z,21.15
2018-07-03T13:09:18.026Z,20.43
2018-07-03T13:11:52.464Z,20.23
2018-07-03T13:14:27.181Z,20.53
2018-07-03T13:17:01.729Z,20.32
2018-07-03T13:19:36.400Z,21.20
2018-07-03T13:22:10.940Z,21.60
2018-07-03T13:24:45.285Z,22.26
2018-07-03T13:27:19.676Z,21.92
2018-07-03T13:29:54.276Z,21.17
2018-07-03T13:32:28.733Z,20.09
2018-07-03T13:35:04.152Z,21.47
2018-07-03T13:37:38.777Z,19.56
2018-07-03T13:40:13.289Z,19.69
2018-07-03T13:42:47.925Z,19.90
2018-07-03T13:45:22.520Z,19.67
2018-07-03T13:47:56.963Z,19.26
2018-07-03T13:50:31.352Z,19.25
2018-07-03T13:53:05.775Z,20.89
2018-07-03T13:55:40.153Z,19.44
2018-07-03T13:58:14.657Z,19.75
2018-07-03T14:00:49.312Z,19.43
2018-07-03T14:03:23.944Z,18.91
2018-07-03T14:05:58.473Z,17.65
2018-07-03T14:08:32.828Z,17.93
2018-07-03T14:11:07.650Z,19.32
2018-07-03T14:13:42.164Z,19.04
2018-07-03T14:16:16.488Z,18.27
2018-07-03T14:18:50.824Z,18.61
2018-07-03T14:21:25.198Z,18.03
2018-07-03T14:30:01.178Z,16.30
2018-07-03T14:32:35.545Z,15.69
2018-07-03T14:35:10.004Z,15.10
2018-07-03T14:37:44.349Z,15.49
2018-07-03T14:40:18.874Z,14.89
2018-07-03T14:42:53.605Z,14.01
2018-07-03T14:45:28.162Z,14.72
2018-07-03T14:48:02.660Z,13.13
2018-07-03T14:50:37.168Z,13.13
2018-07-03T14:53:11.500Z,14.89
2018-07-03T14:55:46.048Z,14.46
2018-07-03T14:58:20.451Z,12.69
2018-07-03T15:00:55.101Z,12.51
2018-07-03T15:03:29.548Z,13.28
2018-07-03T15:06:04.161Z,14.13
2018-07-03T15:08:38.621Z,12.69
2018-07-03T15:11:13.024Z,13.99
2018-07-03T15:13:47.536Z,14.89
2018-07-03T15:16:22.036Z,13.64
2018-07-03T15:19:01.857Z,15.08
2018-07-03T15:21:36.380Z,16.04
2018-07-03T15:24:10.713Z,15.80
2018-07-03T15:26:45.159Z,15.87
2018-07-03T15:29:19.565Z,15.86
2018-07-03T15:31:53.965Z,17.03
2018-07-03T15:34:28.252Z,18.53
2018-07-03T15:37:02.680Z,18.31
2018-07-03T15:39:37.226Z,18.89
2018-07-03T15:42:11.556Z,18.56
2018-07-03T15:44:57.396Z,18.65
2018-07-03T15:47:31.802Z,19.80
2018-07-03T15:50:07.255Z,18.47
2018-07-03T15:52:41.784Z,18.73
2018-07-03T15:55:16.198Z,20.00
2018-07-03T15:57:50.618Z,19.12
2018-07-03T16:00:25.053Z,18.63
2018-07-03T16:03:10.810Z,18.37
2018-07-03T16:06:59.052Z,19.34
2018-07-03T16:09:33.355Z,20.22
2018-07-03T16:12:07.856Z,20.38
2018-07-03T16:14:42.347Z,19.63
2018-07-03T16:17:16.918Z,20.12
2018-07-03T16:19:56.776Z,20.36
2018-07-03T16:22:31.517Z,18.66
2018-07-03T16:25:06.710Z,18.44
2018-07-03T16:27:41.004Z,19.02
2018-07-03T16:30:15.428Z,20.35
2018-07-03T16:32:49.859Z,19.53
2018-07-03T16:35:24.298Z,20.52
2018-07-03T16:37:58.877Z,20.38
2018-07-03T16:40:33.272Z,20.01
2018-07-03T16:43:07.731Z,20.25
2018-07-03T16:45:42.548Z,19.67
2018-07-03T16:48:17.183Z,20.16
2018-07-03T16:50:51.759Z,19.69
2018-07-03T16:53:26.265Z,20.73
2018-07-03T16:56:00.737Z,21.34
2018-07-03T16:58:35.239Z,20.17
2018-07-03T17:01:10.129Z,20.28
2018-07-03T17:03:44.468Z,20.68
2018-07-03T17:06:19.076Z,20.45
2018-07-03T17:08:53.544Z,21.19
2018-07-03T17:11:28.087Z,20.51
2018-07-03T17:14:02.704Z,20.08
2018-07-03T17:16:37.436Z,20.72
2018-07-03T17:19:17.317Z,24.11
2018-07-03T17:21:51.880Z,20.41
2018-07-03T17:24:26.552Z,20.69
2018-07-03T17:27:01.072Z,20.42
2018-07-03T17:29:35.824Z,21.60
2018-07-03T17:32:10.180Z,24.10
2018-07-03T17:34:44.509Z,22.68
2018-07-03T17:37:18.969Z,24.03
2018-07-03T17:40:04.768Z,23.35
2018-07-03T17:43:54.416Z,23.27
2018-07-03T17:46:28.896Z,21.82
2018-07-03T17:49:03.419Z,21.82
2018-07-03T17:51:38.111Z,24.65
2018-07-03T17:54:12.433Z,23.62
2018-07-03T17:56:46.886Z,24.89
2018-07-03T17:59:21.412Z,23.74
2018-07-03T18:01:55.947Z,22.75
2018-07-03T18:04:30.344Z,22.08
2018-07-03T18:07:04.763Z,23.83
2018-07-03T18:09:39.132Z,24.50
2018-07-03T18:12:13.705Z,25.46
2018-07-03T18:14:48.138Z,25.78
2018-07-03T18:17:22.596Z,24.48
2018-07-03T18:19:56.952Z,26.06
2018-07-03T18:22:31.345Z,25.60
2018-07-03T18:25:06.036Z,26.51
2018-07-03T18:27:40.388Z,25.52
2018-07-03T18:30:14.838Z,25.66
2018-07-03T18:32:49.197Z,26.89
2018-07-03T18:35:23.686Z,27.78
2018-07-03T18:37:58.441Z,27.09
2018-07-03T18:40:32.888Z,26.95
2018-07-03T18:43:07.439Z,27.10
2018-07-03T18:45:41.997Z,26.07
2018-07-03T18:48:16.428Z,26.44
2018-07-03T18:50:50.946Z,26.96
2018-07-03T18:53:25.625Z,26.87
2018-07-03T18:56:00.140Z,28.30
2018-07-03T18:58:34.589Z,27.37
2018-07-03T19:01:09.175Z,26.41
2018-07-03T19:03:43.762Z,26.84
2018-07-03T19:06:18.326Z,27.64
2018-07-03T19:08:52.997Z,27.46
2018-07-03T19:11:27.457Z,27.76
2018-07-03T19:14:01.950Z,27.92
2018-07-03T19:16:36.347Z,28.16
2018-07-03T19:19:10.829Z,28.29
2018-07-03T19:21:45.502Z,28.66
2018-07-03T19:24:20.020Z,29.10
2018-07-03T19:26:54.533Z,29.97
2018-07-03T19:29:29.001Z,29.08
2018-07-03T19:32:03.532Z,29.78
2018-07-03T19:34:38.021Z,30.08
2018-07-03T19:37:12.667Z,32.26
2018-07-03T19:39:47.412Z,33.19
2018-07-03T19:42:21.999Z,32.67
2018-07-03T19:44:56.408Z,33.13
2018-07-03T19:47:31.009Z,33.40
2018-07-03T19:50:05.604Z,35.11
2018-07-03T19:52:40.210Z,34.96
2018-07-03T19:55:14.812Z,34.59
2018-07-03T19:57:49.284Z,32.88
2018-07-03T20:00:23.661Z,31.08
2018-07-03T20:02:58.076Z,30.35
2018-07-03T20:05:32.569Z,31.60
2018-07-03T20:08:07.444Z,30.91
2018-07-03T20:10:41.859Z,31.70
2018-07-03T20:13:17.417Z,32.38
2018-07-03T20:15:52.029Z,33.22
2018-07-03T20:18:26.640Z,32.31
2018-07-03T20:21:01.207Z,32.20
2018-07-03T20:23:35.940Z,31.89
2018-07-03T20:26:10.852Z,32.01
2018-07-03T20:28:45.248Z,33.23
2018-07-03T20:31:19.644Z,34.27
2018-07-03T20:33:54.035Z,35.03
2018-07-03T20:36:28.634Z,36.74
2018-07-03T20:39:04.703Z,35.58
2018-07-03T20:41:39.437Z,35.44
2018-07-03T20:44:14.066Z,35.58
2018-07-03T20:46:48.492Z,34.71
2018-07-03T20:49:22.969Z,33.43
2018-07-03T20:51:57.592Z,33.65
2018-07-03T20:54:32.077Z,33.96
2018-07-03T20:57:06.639Z,33.11
2018-07-03T20:59:41.316Z,32.90
2018-07-03T21:02:15.744Z,32.43
2018-07-03T21:04:50.227Z,33.84
2018-07-03T21:07:24.848Z,33.18
2018-07-03T21:09:59.429Z,34.21
2018-07-03T21:12:34.005Z,33.58
2018-07-03T21:15:08.592Z,33.93
2018-07-03T21:17:43.053Z,34.51
2018-07-03T21:20:17.513Z,32.50
2018-07-03T21:22:51.944Z,32.37
2018-07-03T21:25:26.300Z,32.22
2018-07-03T21:28:00.800Z,32.38
2018-07-03T21:30:35.288Z,32.63
2018-07-03T21:33:09.658Z,33.37
2018-07-03T21:35:44.298Z,33.43
2018-07-03T21:38:18.918Z,31.93
2018-07-03T21:40:53.505Z,33.16
2018-07-03T21:43:28.136Z,32.25
2018-07-03T21:46:02.563Z,32.99
2018-07-03T21:48:37.176Z,33.28
2018-07-03T21:51:11.725Z,33.63
2018-07-03T21:53:46.330Z,33.79
2018-07-03T21:56:20.969Z,34.30
2018-07-03T21:58:55.438Z,34.19
2018-07-03T22:01:29.838Z,34.59
2018-07-03T22:04:04.378Z,33.42
2018-07-03T22:06:38.984Z,34.54
2018-07-03T22:09:14.117Z,33.30
2018-07-03T22:11:48.752Z,33.10
2018-07-03T22:14:23.296Z,32.56
2018-07-03T22:16:57.817Z,31.26
2018-07-03T22:19:32.378Z,31.04
2018-07-03T22:22:07.082Z,31.06
2018-07-03T22:24:41.673Z,31.20
2018-07-03T22:27:16.246Z,30.58
2018-07-03T22:29:50.793Z,31.08
2018-07-03T22:32:25.212Z,30.86
2018-07-03T22:34:59.749Z,30.72
2018-07-03T22:37:34.257Z,30.57
2018-07-03T22:40:08.689Z,30.60
2018-07-03T22:42:43.389Z,31.12
2018-07-03T22:45:17.769Z,30.68
2018-07-03T22:47:52.246Z,31.20
2018-07-03T22:50:26.593Z,31.73
2018-07-03T22:53:01.933Z,31.50
2018-07-03T22:55:36.304Z,32.10
2018-07-03T22:58:10.896Z,31.97
2018-07-03T23:00:45.507Z,31.89
2018-07-03T23:03:19.949Z,31.95
2018-07-03T23:05:54.313Z,32.55
2018-07-03T23:08:28.701Z,32.82
2018-07-03T23:11:03.133Z,31.90
2018-07-03T23:13:37.541Z,32.60
2018-07-03T23:16:12.185Z,33.06
2018-07-03T23:18:46.796Z,32.53
2018-07-03T23:21:21.197Z,34.06
2018-07-03T23:23:55.782Z,32.74
2018-07-03T23:26:30.415Z,32.62
2018-07-03T23:29:04.923Z,34.11
2018-07-03T23:31:39.530Z,32.88
2018-07-03T23:34:14.057Z,33.68
2018-07-03T23:36:48.633Z,33.49
2018-07-03T23:39:23.164Z,33.53
2018-07-03T23:41:57.789Z,33.85
2018-07-03T23:44:32.576Z,34.45
2018-07-03T23:47:18.359Z,34.21
2018-07-03T23:50:04.113Z,35.01
2018-07-03T23:52:50.140Z,34.58
2018-07-03T23:55:35.801Z,35.50
2018-07-03T23:58:21.628Z,34.94
